CGV2 weather

Grand Valley / Luther Field
Ontario, Canada

Public forecast

Using degrees Celsius for public forecast. Weather courtesy of forecast.io.

METAR (pilot weather report)

Closest report is CFB Borden, 27.0 nm (50.0 km) NE. Retrieved 2019/07/17 03:00 UTC (34 minutes ago):

CYBN 170300Z AUTO 21005KT 9SM CLR 24/21 A2990 RMK SLP122

TAF (pilot weather forecast)

Forecast is more than 12 hours old.

Closest forecast is CFB Borden, 27.0 nm (50.0 km) NE. Retrieved 2019/07/16 00:33 UTC (1 day ago):

TAF TAF CYBN 162330Z 1700/1712 24012G22KT P6SM SCT040 TEMPO 1700/1702 P6SM -SHRA BKN015 OVC040 FM170200 24005KT P6SM BKN030 OVC200 FM170500 VRB03KT 6SM -SHRA BR BKN012 OVC025 RMK FCST BASED ON AUTO OBS. NXT FCST BY 170600Z